Ana Sayfa
METAR-TAF:

METAR-TAF

Havaalanları :

Mitiga International Airport

Trablus, Libya

Enlem: 32-54N, Boylam: 13-17E, yükseklik: 11 m

METAR: eksik

Saat: 15:17 (13:17 UTC)

Tahmin

Rapor saat 05:00 UTC de 8 saat ve 17 dakika önce yapıldı.
Ayın 23'si saat 06 UTC'den ayın 24'si saat 06 UTC'ye kadar geçerli Tahmin
Rüzgar batı/güneybatıdan 10 kt
Görüş mesafesi: 8000 m
Dönüşüyor
ayın 23'si saat 12 UTC'den ayın 23'si saat 14 UTC'ye kadar
Rüzgar batı/kuzeybatıdan 12 kt
Görüş mesafesi 10 km veya daha fazla
1500 m altında bulut yok ve kümülonimbus yok
Dönüşüyor
ayın 23'si saat 18 UTC'den ayın 23'si saat 20 UTC'ye kadar
Rüzgar değişken yönden 2 kt

TAF: HLLM 230500Z 2306/2406 24010KT 8000 NSC BECMG 2312/2314 30012KT CAVOK BECMG 2318/2320 VRB02KT

4.000'den fazla havaalanı için hava durumu gözlemleri ve tahminleri (METAR ve TAF raporları).

Kullanılabilir istasyonlar harita üzerinde sarı ve kırmızı noktalarla gösterilir.

İstasyonun adını görmek için fareyi noktanın üzerinde gezdirin.

Sonrasında hava gözlem ve tahminlerini görmek için tıklayın.

Haritayı değiştirmek için: yaklaştırmak için siyah artı işaretli yeşil düğmeye ve uzaklaştırmak için de eksi işaretli düğmeye hızla tıklayın; bitişik haritalar için yeşil okları kullanın.


METAR-TAF: